createdAt,value
2018-07-11T00:02:11.173Z,5.20
2018-07-11T00:04:40.554Z,5.00
2018-07-11T00:07:09.649Z,4.97
2018-07-11T00:09:38.809Z,5.10
2018-07-11T00:12:08.142Z,4.80
2018-07-11T00:14:38.642Z,4.53
2018-07-11T00:17:14.040Z,4.40
2018-07-11T00:19:44.469Z,4.60
2018-07-11T00:22:13.610Z,4.10
2018-07-11T00:24:42.762Z,5.10
2018-07-11T00:27:11.637Z,4.10
2018-07-11T00:29:40.714Z,4.40
2018-07-11T00:32:14.212Z,4.70
2018-07-11T00:34:43.383Z,4.80
2018-07-11T00:37:12.612Z,4.60
2018-07-11T00:39:41.930Z,4.47
2018-07-11T00:42:10.722Z,3.97
2018-07-11T00:44:39.756Z,4.00
2018-07-11T00:47:09.273Z,4.40
2018-07-11T00:49:38.572Z,4.83
2018-07-11T00:52:07.801Z,4.37
2018-07-11T00:54:37.126Z,4.70
2018-07-11T00:57:05.929Z,4.10
2018-07-11T00:59:37.805Z,4.67
2018-07-11T01:02:07.507Z,4.77
2018-07-11T01:04:36.631Z,4.20
2018-07-11T01:07:07.101Z,5.10
2018-07-11T01:09:46.031Z,4.67
2018-07-11T01:12:15.216Z,4.83
2018-07-11T01:14:45.511Z,4.53
2018-07-11T01:17:19.789Z,4.23
2018-07-11T01:19:49.580Z,4.43
2018-07-11T01:22:18.711Z,4.03
2018-07-11T01:24:47.833Z,4.50
2018-07-11T01:27:17.172Z,4.50
2018-07-11T01:29:46.297Z,4.27
2018-07-11T01:32:15.407Z,4.90
2018-07-11T01:34:44.695Z,5.00
2018-07-11T01:37:13.789Z,4.20
2018-07-11T01:39:42.910Z,4.30
2018-07-11T01:42:12.136Z,4.40
2018-07-11T01:44:41.349Z,4.10
2018-07-11T01:47:10.507Z,4.50
2018-07-11T01:49:39.772Z,4.50
2018-07-11T01:52:19.916Z,4.60
2018-07-11T01:54:49.292Z,4.43
2018-07-11T01:57:18.422Z,4.40
2018-07-11T01:59:47.627Z,4.30
2018-07-11T02:02:16.960Z,4.57
2018-07-11T02:04:46.169Z,4.30
2018-07-11T02:07:15.308Z,4.10
2018-07-11T02:09:44.635Z,4.37
2018-07-11T02:12:13.836Z,4.00
2018-07-11T02:14:47.300Z,4.00
2018-07-11T02:17:17.321Z,3.87
2018-07-11T02:19:46.537Z,3.80
2018-07-11T02:22:16.870Z,3.73
2018-07-11T02:24:46.237Z,3.83
2018-07-11T02:27:16.277Z,3.70
2018-07-11T02:29:45.683Z,4.00
2018-07-11T02:32:14.993Z,3.67
2018-07-11T02:34:44.357Z,3.90
2018-07-11T02:37:13.511Z,4.00
2018-07-11T02:39:44.673Z,4.07
2018-07-11T02:42:14.240Z,4.07
2018-07-11T02:44:43.414Z,3.67
2018-07-11T02:47:13.527Z,3.70
2018-07-11T02:49:43.507Z,4.00
2018-07-11T02:52:12.669Z,3.90
2018-07-11T02:54:41.869Z,3.57
2018-07-11T02:57:11.781Z,3.90
2018-07-11T02:59:40.665Z,3.97
2018-07-11T03:02:09.755Z,3.60
2018-07-11T03:04:39.491Z,3.80
2018-07-11T03:07:09.327Z,3.70
2018-07-11T03:09:38.733Z,4.00
2018-07-11T03:12:07.838Z,3.60
2018-07-11T03:14:39.220Z,4.00
2018-07-11T03:17:08.630Z,3.23
2018-07-11T03:19:37.732Z,3.73
2018-07-11T03:22:06.869Z,4.00
2018-07-11T03:24:36.076Z,3.67
2018-07-11T03:27:05.202Z,4.10
2018-07-11T03:29:34.344Z,3.80
2018-07-11T03:32:03.549Z,3.63
2018-07-11T03:34:32.684Z,3.90
2018-07-11T03:37:01.815Z,3.50
2018-07-11T03:39:31.235Z,3.43
2018-07-11T03:42:00.361Z,3.40
2018-07-11T03:44:29.530Z,3.40
2018-07-11T03:46:59.076Z,3.50
2018-07-11T03:49:27.812Z,3.33
2018-07-11T03:51:57.019Z,3.60
2018-07-11T03:54:26.658Z,3.23
2018-07-11T03:56:55.405Z,3.50
2018-07-11T03:59:24.456Z,3.47
2018-07-11T04:01:53.695Z,3.70
2018-07-11T04:04:23.533Z,3.80
2018-07-11T04:06:53.450Z,3.13
2018-07-11T04:09:22.696Z,3.50
2018-07-11T04:11:51.833Z,3.63
2018-07-11T04:14:20.963Z,3.67
2018-07-11T04:16:50.301Z,3.60
2018-07-11T04:19:19.405Z,3.53
2018-07-11T04:21:48.517Z,3.60
2018-07-11T04:24:17.829Z,3.47
2018-07-11T04:26:47.009Z,3.80
2018-07-11T04:29:17.342Z,3.33
2018-07-11T04:31:46.803Z,3.40
2018-07-11T04:34:15.991Z,3.40
2018-07-11T04:36:45.209Z,3.33
2018-07-11T04:39:14.457Z,3.23
2018-07-11T04:41:43.589Z,3.50
2018-07-11T04:44:12.844Z,3.70
2018-07-11T04:46:42.322Z,3.60
2018-07-11T04:49:11.463Z,3.77
2018-07-11T04:51:40.651Z,3.30
2018-07-11T04:54:10.946Z,3.33
2018-07-11T04:56:40.097Z,3.80
2018-07-11T04:59:09.214Z,3.57
2018-07-11T05:01:38.457Z,3.60
2018-07-11T05:04:07.628Z,3.53
2018-07-11T05:06:36.709Z,3.60
2018-07-11T05:09:06.539Z,3.57
2018-07-11T05:11:35.667Z,3.70
2018-07-11T05:14:04.781Z,3.73
2018-07-11T05:16:34.109Z,3.27
2018-07-11T05:19:03.273Z,3.73
2018-07-11T05:21:32.357Z,3.60
2018-07-11T05:24:01.696Z,3.37
2018-07-11T05:26:30.838Z,3.40
2018-07-11T05:28:59.925Z,3.40
2018-07-11T05:31:29.312Z,3.67
2018-07-11T05:33:58.994Z,3.30
2018-07-11T05:36:29.318Z,3.63
2018-07-11T05:38:58.737Z,4.00
2018-07-11T05:41:28.088Z,3.23
2018-07-11T05:43:57.457Z,3.53
2018-07-11T05:46:26.632Z,3.50
2018-07-11T05:48:55.754Z,3.90
2018-07-11T05:51:24.850Z,3.23
2018-07-11T05:53:54.115Z,3.30
2018-07-11T05:56:23.415Z,3.70
2018-07-11T05:58:52.536Z,3.67
2018-07-11T06:01:21.974Z,3.40
2018-07-11T06:03:51.083Z,4.00
2018-07-11T06:06:20.218Z,3.70
2018-07-11T06:08:49.418Z,4.27
2018-07-11T06:11:21.925Z,3.60
2018-07-11T06:13:52.505Z,4.27
2018-07-11T06:16:21.902Z,3.70
2018-07-11T06:18:50.985Z,3.50
2018-07-11T06:21:22.887Z,3.83
2018-07-11T06:23:52.096Z,4.00
2018-07-11T06:26:21.353Z,3.80
2018-07-11T06:28:50.555Z,4.27
2018-07-11T06:31:19.688Z,3.90
2018-07-11T06:33:48.986Z,4.27
2018-07-11T06:36:18.069Z,4.03
2018-07-11T06:38:47.180Z,3.53
2018-07-11T06:41:16.809Z,3.67
2018-07-11T06:43:45.590Z,3.97
2018-07-11T06:46:14.652Z,3.67
2018-07-11T06:48:43.891Z,3.93
2018-07-11T06:51:12.986Z,3.60
2018-07-11T06:53:42.080Z,3.60
2018-07-11T06:56:11.046Z,3.60
2018-07-11T06:58:40.215Z,3.77
2018-07-11T07:01:09.315Z,3.17
2018-07-11T07:03:38.610Z,3.57
2018-07-11T07:06:07.665Z,3.70
2018-07-11T07:08:36.432Z,4.10
2018-07-11T07:11:05.570Z,3.83
2018-07-11T07:13:34.686Z,3.70
2018-07-11T07:16:03.840Z,3.70
2018-07-11T07:18:32.995Z,3.37
2018-07-11T07:21:02.104Z,3.50
2018-07-11T07:23:31.210Z,3.93
2018-07-11T07:26:00.472Z,3.80
2018-07-11T07:28:29.606Z,3.93
2018-07-11T07:30:58.787Z,3.40
2018-07-11T07:33:28.080Z,3.73
2018-07-11T07:35:57.189Z,4.17
2018-07-11T07:38:26.349Z,4.03
2018-07-11T07:40:55.523Z,3.53
2018-07-11T07:43:26.247Z,3.57
2018-07-11T07:45:55.005Z,3.83
2018-07-11T07:48:24.280Z,3.77
2018-07-11T07:50:53.466Z,3.70
2018-07-11T07:53:22.247Z,4.40
2018-07-11T07:55:51.873Z,3.40
2018-07-11T07:58:21.116Z,3.90
2018-07-11T08:00:50.168Z,4.13
2018-07-11T08:03:19.271Z,4.20
2018-07-11T08:05:48.439Z,4.50
2018-07-11T08:08:17.723Z,4.70
2018-07-11T08:10:46.926Z,4.00
2018-07-11T08:13:16.087Z,4.07
2018-07-11T08:15:45.674Z,4.37
2018-07-11T08:18:15.053Z,4.73
2018-07-11T08:20:44.140Z,4.60
2018-07-11T08:23:27.023Z,4.63
2018-07-11T08:26:07.144Z,5.03
2018-07-11T08:29:50.732Z,4.90
2018-07-11T08:32:38.607Z,5.13
2018-07-11T08:35:19.824Z,5.33
2018-07-11T08:40:09.442Z,5.23
2018-07-11T08:42:52.242Z,4.90
2018-07-11T08:47:29.044Z,4.40
2018-07-11T08:52:14.048Z,5.37
2018-07-11T08:56:56.267Z,5.47
2018-07-11T08:59:50.774Z,4.30
2018-07-11T09:02:33.839Z,4.70
2018-07-11T09:05:24.468Z,4.40
2018-07-11T09:08:06.472Z,5.00
2018-07-11T09:10:51.974Z,4.57
2018-07-11T09:13:36.459Z,4.40
2018-07-11T09:18:39.957Z,4.50
2018-07-11T09:21:25.926Z,4.40
2018-07-11T09:24:16.025Z,5.20
2018-07-11T09:26:45.637Z,4.63
2018-07-11T09:29:15.224Z,4.63
2018-07-11T09:31:44.412Z,5.30
2018-07-11T09:34:13.849Z,4.43
2018-07-11T09:36:43.038Z,4.67
2018-07-11T09:39:12.217Z,4.30
2018-07-11T09:41:41.779Z,4.10
2018-07-11T09:44:10.593Z,3.90
2018-07-11T09:46:39.700Z,4.20
2018-07-11T09:49:09.244Z,5.03
2018-07-11T09:51:38.636Z,4.40
2018-07-11T09:54:07.738Z,3.77
2018-07-11T09:56:37.358Z,4.20
2018-07-11T09:59:06.574Z,4.50
2018-07-11T10:01:35.736Z,3.90
2018-07-11T10:04:06.145Z,3.90
2018-07-11T10:06:35.550Z,4.23
2018-07-11T10:09:04.936Z,4.23
2018-07-11T10:11:34.073Z,4.20
2018-07-11T10:14:03.370Z,4.30
2018-07-11T10:16:33.009Z,4.03
2018-07-11T10:19:05.000Z,3.70
2018-07-11T10:21:35.337Z,3.90
2018-07-11T10:24:04.944Z,3.80
2018-07-11T10:26:34.827Z,3.77
2018-07-11T10:29:03.998Z,3.80
2018-07-11T10:31:32.782Z,3.50
2018-07-11T10:34:01.973Z,4.07
2018-07-11T10:36:31.086Z,4.17
2018-07-11T10:39:00.269Z,4.03
2018-07-11T10:41:29.872Z,4.50
2018-07-11T10:43:58.981Z,3.50
2018-07-11T10:46:28.163Z,3.40
2018-07-11T10:48:58.814Z,3.70
2018-07-11T10:51:27.956Z,3.70
2018-07-11T10:53:57.103Z,3.97
2018-07-11T10:56:26.657Z,3.57
2018-07-11T10:58:55.846Z,4.20
2018-07-11T11:01:25.609Z,3.60
2018-07-11T11:03:55.002Z,4.00
2018-07-11T11:06:24.342Z,4.20
2018-07-11T11:08:54.356Z,3.30
2018-07-11T11:11:23.104Z,3.47
2018-07-11T11:13:52.196Z,3.37
2018-07-11T11:16:21.320Z,3.40
2018-07-11T11:18:50.664Z,3.50
2018-07-11T11:21:19.864Z,3.30
2018-07-11T11:23:49.089Z,3.67
2018-07-11T11:26:18.354Z,3.67
2018-07-11T11:28:47.541Z,3.80
2018-07-11T11:31:16.659Z,3.93
2018-07-11T11:33:46.420Z,3.27
2018-07-11T11:36:15.617Z,3.47
2018-07-11T11:38:44.547Z,3.97
2018-07-11T11:41:13.566Z,3.57
2018-07-11T11:43:42.712Z,3.40
2018-07-11T11:46:12.233Z,4.13
2018-07-11T11:48:41.335Z,4.00
2018-07-11T11:51:10.439Z,3.60
2018-07-11T11:53:39.817Z,2.93
2018-07-11T11:56:09.003Z,3.20
2018-07-11T11:58:38.241Z,3.30
2018-07-11T12:01:07.445Z,3.47
2018-07-11T12:03:36.765Z,3.50
2018-07-11T12:06:06.426Z,3.63
2018-07-11T12:08:36.364Z,2.97
2018-07-11T12:11:05.595Z,3.03
2018-07-11T12:13:34.751Z,3.40
2018-07-11T12:16:05.475Z,3.33
2018-07-11T12:18:35.250Z,3.40
2018-07-11T12:21:04.037Z,3.07
2018-07-11T12:23:32.785Z,3.30
2018-07-11T12:26:07.932Z,3.03
2018-07-11T12:28:37.521Z,3.10
2018-07-11T12:31:06.754Z,3.63
2018-07-11T12:33:36.406Z,3.80
2018-07-11T12:36:05.908Z,3.80
2018-07-11T12:38:35.145Z,3.90
2018-07-11T12:41:04.900Z,4.00
2018-07-11T12:43:34.191Z,4.13
2018-07-11T12:46:04.081Z,3.70
2018-07-11T12:48:38.628Z,3.40
2018-07-11T12:51:07.988Z,3.10
2018-07-11T12:53:37.332Z,3.50
2018-07-11T12:56:07.070Z,3.80
2018-07-11T12:58:36.466Z,3.40
2018-07-11T13:01:05.620Z,3.50
2018-07-11T13:03:34.922Z,3.70
2018-07-11T13:06:03.886Z,3.70
2018-07-11T13:08:32.982Z,3.90
2018-07-11T13:11:02.886Z,3.80
2018-07-11T13:13:32.222Z,3.53
2018-07-11T13:16:01.454Z,3.90
2018-07-11T13:18:30.202Z,3.47
2018-07-11T13:20:59.004Z,3.70
2018-07-11T13:23:28.080Z,3.60
2018-07-11T13:25:57.531Z,3.60
2018-07-11T13:28:27.013Z,4.00
2018-07-11T13:30:55.871Z,3.73
2018-07-11T13:33:25.273Z,3.70
2018-07-11T13:35:54.648Z,3.43
2018-07-11T13:38:23.821Z,3.57
2018-07-11T13:40:53.065Z,3.57
2018-07-11T13:43:22.383Z,3.40
2018-07-11T13:45:51.533Z,3.70
2018-07-11T13:48:20.685Z,3.60
2018-07-11T13:50:50.041Z,3.73
2018-07-11T13:53:19.179Z,4.07
2018-07-11T13:55:48.383Z,4.27
2018-07-11T13:58:18.205Z,4.57
2018-07-11T14:00:47.448Z,4.53
2018-07-11T14:03:17.283Z,3.93
2018-07-11T14:05:47.283Z,4.17
2018-07-11T14:08:16.608Z,4.20
2018-07-11T14:10:46.325Z,3.70
2018-07-11T14:13:16.713Z,4.00
2018-07-11T14:15:45.917Z,3.60
2018-07-11T14:18:15.899Z,3.40
2018-07-11T14:20:45.056Z,3.97
2018-07-11T14:23:14.247Z,3.43
2018-07-11T14:25:43.557Z,2.90
2018-07-11T14:28:12.803Z,3.50
2018-07-11T14:30:42.040Z,3.93
2018-07-11T14:33:12.210Z,3.30
2018-07-11T14:35:41.357Z,3.27
2018-07-11T14:38:10.479Z,3.97
2018-07-11T14:40:40.545Z,4.30
2018-07-11T14:43:09.593Z,3.73
2018-07-11T14:45:38.839Z,4.03
2018-07-11T14:48:15.205Z,3.37
2018-07-11T14:50:44.984Z,3.80
2018-07-11T14:53:14.939Z,3.60
2018-07-11T14:55:44.194Z,3.40
2018-07-11T14:58:13.423Z,3.90
2018-07-11T15:00:43.394Z,3.23
2018-07-11T15:03:12.191Z,3.70
2018-07-11T15:05:41.554Z,3.80
2018-07-11T15:08:10.879Z,3.90
2018-07-11T15:10:40.061Z,3.67
2018-07-11T15:13:09.237Z,3.23
2018-07-11T15:15:38.699Z,3.57
2018-07-11T15:18:08.857Z,3.70
2018-07-11T15:20:38.081Z,3.33
2018-07-11T15:23:07.364Z,4.30
2018-07-11T15:25:36.571Z,3.70
2018-07-11T15:28:05.957Z,3.70
2018-07-11T15:30:35.731Z,3.70
2018-07-11T15:33:05.701Z,3.77
2018-07-11T15:35:34.901Z,3.70
2018-07-11T15:38:04.174Z,4.17
2018-07-11T15:40:33.801Z,3.70
2018-07-11T15:43:03.023Z,3.93
2018-07-11T15:45:32.203Z,3.80
2018-07-11T15:48:01.801Z,3.90
2018-07-11T15:50:31.401Z,3.83
2018-07-11T15:53:01.869Z,3.53
2018-07-11T15:55:32.885Z,3.70
2018-07-11T15:58:06.505Z,3.73
2018-07-11T16:00:36.227Z,3.80
2018-07-11T16:03:06.302Z,3.50
2018-07-11T16:05:41.313Z,4.13
2018-07-11T16:08:10.661Z,3.53
2018-07-11T16:10:46.739Z,3.40
2018-07-11T16:13:15.997Z,3.37
2018-07-11T16:15:45.817Z,3.53
2018-07-11T16:18:14.964Z,4.20
2018-07-11T16:20:44.293Z,4.30
2018-07-11T16:23:13.711Z,3.60
2018-07-11T16:25:43.995Z,3.37
2018-07-11T16:28:13.267Z,4.00
2018-07-11T16:30:42.513Z,4.07
2018-07-11T16:33:11.703Z,3.67
2018-07-11T16:35:40.955Z,4.20
2018-07-11T16:38:10.105Z,3.90
2018-07-11T16:40:39.515Z,3.97
2018-07-11T16:43:08.659Z,3.50
2018-07-11T16:45:37.445Z,3.83
2018-07-11T16:48:06.741Z,3.77
2018-07-11T16:50:36.003Z,4.20
2018-07-11T16:53:05.504Z,3.80
2018-07-11T16:55:35.981Z,4.37
2018-07-11T16:58:05.227Z,4.30
2018-07-11T17:00:35.147Z,4.30
2018-07-11T17:03:06.560Z,3.60
2018-07-11T17:05:50.034Z,4.10
2018-07-11T17:08:29.698Z,3.97
2018-07-11T17:11:32.469Z,4.20
2018-07-11T17:14:03.231Z,4.37
2018-07-11T17:16:38.728Z,4.30
2018-07-11T17:20:12.601Z,4.10
2018-07-11T17:22:53.445Z,3.97
2018-07-11T17:25:22.571Z,3.70
2018-07-11T17:27:58.863Z,3.70
2018-07-11T17:30:33.832Z,3.63
2018-07-11T17:33:04.895Z,4.03
2018-07-11T17:35:34.663Z,4.27
2018-07-11T17:38:05.753Z,3.93
2018-07-11T17:40:37.302Z,4.00
2018-07-11T17:43:06.109Z,3.87
2018-07-11T17:45:36.730Z,3.80
2018-07-11T17:50:13.943Z,3.70
2018-07-11T17:52:54.009Z,3.87
2018-07-11T17:55:35.069Z,3.97
2018-07-11T17:58:08.520Z,4.60
2018-07-11T18:00:43.649Z,3.77
2018-07-11T18:06:25.559Z,3.80
2018-07-11T18:09:05.847Z,4.00
2018-07-11T18:11:43.585Z,3.93
2018-07-11T18:14:13.162Z,3.53
2018-07-11T18:16:47.037Z,3.80
2018-07-11T18:21:30.611Z,3.50
2018-07-11T18:24:06.323Z,3.50
2018-07-11T18:27:14.197Z,3.30
2018-07-11T18:29:54.614Z,3.27
2018-07-11T18:32:33.187Z,3.83
2018-07-11T18:39:20.633Z,3.87
2018-07-11T18:42:57.557Z,3.67
2018-07-11T18:45:37.904Z,3.40
2018-07-11T18:50:26.104Z,4.00
2018-07-11T18:53:00.607Z,3.90
2018-07-11T18:55:40.014Z,4.10
2018-07-11T18:59:01.780Z,4.00
2018-07-11T19:02:11.365Z,4.10
2018-07-11T19:05:19.253Z,4.00
2018-07-11T19:08:00.070Z,4.47
2018-07-11T19:10:51.169Z,3.90
2018-07-11T19:13:30.309Z,4.20
2018-07-11T19:16:08.390Z,3.87
2018-07-11T19:18:46.009Z,4.43
2018-07-11T19:21:18.079Z,3.90
2018-07-11T19:24:01.031Z,3.90
2018-07-11T19:27:38.343Z,4.03
2018-07-11T19:30:11.377Z,4.00
2018-07-11T19:34:52.155Z,4.20
2018-07-11T19:37:49.472Z,4.23
2018-07-11T19:41:22.474Z,4.37
2018-07-11T19:44:11.382Z,4.40
2018-07-11T19:46:52.132Z,4.30
2018-07-11T19:49:32.719Z,4.10
2018-07-11T19:52:19.655Z,4.47
2018-07-11T19:55:01.392Z,4.00
2018-07-11T19:57:30.550Z,3.90
2018-07-11T19:59:59.832Z,4.50
2018-07-11T20:02:29.050Z,4.70
2018-07-11T20:04:58.226Z,5.17
2018-07-11T20:07:27.065Z,4.20
2018-07-11T20:09:56.140Z,4.60
2018-07-11T20:12:25.335Z,4.57
2018-07-11T20:14:54.668Z,4.33
2018-07-11T20:17:23.791Z,5.03
2018-07-11T20:19:53.246Z,4.97
2018-07-11T20:22:22.710Z,4.90
2018-07-11T20:24:51.571Z,5.20
2018-07-11T20:27:21.468Z,4.70
2018-07-11T20:29:50.706Z,4.60
2018-07-11T20:32:19.870Z,4.80
2018-07-11T20:34:48.994Z,4.83
2018-07-11T20:37:18.191Z,4.50
2018-07-11T20:39:46.980Z,5.07
2018-07-11T20:42:16.054Z,5.27
2018-07-11T20:44:45.306Z,4.90
2018-07-11T20:47:14.434Z,4.97
2018-07-11T20:49:43.821Z,5.47
2018-07-11T20:52:13.077Z,5.20
2018-07-11T20:54:41.848Z,5.60
2018-07-11T20:57:10.481Z,5.27
2018-07-11T21:02:52.211Z,5.03
2018-07-11T21:07:53.458Z,5.83
2018-07-11T21:10:31.958Z,6.30
2018-07-11T21:13:30.153Z,5.73
2018-07-11T21:18:17.900Z,5.73
2018-07-11T21:20:47.321Z,5.53
2018-07-11T21:23:16.399Z,5.83
2018-07-11T21:25:45.477Z,5.30
2018-07-11T21:28:15.008Z,5.60
2018-07-11T21:30:44.109Z,5.40
2018-07-11T21:33:13.229Z,5.60
2018-07-11T21:35:42.532Z,6.00
2018-07-11T21:38:11.657Z,5.93
2018-07-11T21:40:40.796Z,5.40
2018-07-11T21:43:10.054Z,6.10
2018-07-11T21:45:39.169Z,6.40
2018-07-11T21:48:08.266Z,6.53
2018-07-11T21:50:37.544Z,6.40
2018-07-11T21:53:07.152Z,6.77
2018-07-11T21:55:36.239Z,6.13
2018-07-11T21:58:05.567Z,5.97
2018-07-11T22:00:37.380Z,5.77
2018-07-11T22:03:08.042Z,6.83
2018-07-11T22:05:37.391Z,6.27
2018-07-11T22:08:09.273Z,6.63
2018-07-11T22:10:39.400Z,5.53
2018-07-11T22:13:09.027Z,5.83
2018-07-11T22:15:38.060Z,5.93
2018-07-11T22:18:18.278Z,5.73
2018-07-11T22:20:46.193Z,6.50
2018-07-11T22:23:14.346Z,6.00
2018-07-11T22:25:42.278Z,5.97
2018-07-11T22:28:10.195Z,6.40
2018-07-11T22:30:38.127Z,6.53
2018-07-11T22:33:06.038Z,6.07
2018-07-11T22:35:34.585Z,6.40
2018-07-11T22:38:02.713Z,6.47
2018-07-11T22:40:30.621Z,6.20
2018-07-11T22:42:58.759Z,6.80
2018-07-11T22:45:26.927Z,7.57
2018-07-11T22:47:55.115Z,7.20
2018-07-11T22:50:22.949Z,6.30
2018-07-11T22:52:50.884Z,6.30
2018-07-11T22:55:18.795Z,6.47
2018-07-11T22:57:46.713Z,7.33
2018-07-11T23:00:14.664Z,6.60
2018-07-11T23:02:42.578Z,6.97
2018-07-11T23:05:10.523Z,7.67
2018-07-11T23:07:38.441Z,6.70
2018-07-11T23:10:06.365Z,6.60
2018-07-11T23:12:34.304Z,7.30
2018-07-11T23:15:02.205Z,7.33
2018-07-11T23:17:30.157Z,6.77
2018-07-11T23:19:58.065Z,7.00
2018-07-11T23:22:25.993Z,7.20
2018-07-11T23:24:54.357Z,7.07
2018-07-11T23:27:22.174Z,6.97
2018-07-11T23:29:50.102Z,6.33
2018-07-11T23:32:18.158Z,6.90
2018-07-11T23:34:46.068Z,7.07
2018-07-11T23:37:13.980Z,6.73
2018-07-11T23:39:41.879Z,8.73
2018-07-11T23:42:09.784Z,7.70
2018-07-11T23:44:37.712Z,8.03
2018-07-11T23:47:05.632Z,7.93
2018-07-11T23:49:33.536Z,7.70
2018-07-11T23:52:01.437Z,7.50
2018-07-11T23:54:29.365Z,7.23
2018-07-11T23:56:57.260Z,7.90
2018-07-11T23:59:25.169Z,7.50
